Time;durP1;ratioP1;P1;durP2;ratioP2;P2;SDS_P1;SDS_P2;PMS_P1;PMS_P2;Temp;Humidity;BMP_temperature;BMP_pressure;BME280_temperature;BME280_humidity;BME280_pressure;Samples;Min_cycle;Max_cycle;Signal;HPM_P1;HPM_P2
2022/07/26 00:00:08;;;;;;;;;0.25;0.00;;;;;23.41;100.00;101212.44;4957382;28;45643;-73
2022/07/26 00:02:34;;;;;;;;;0.75;0.75;;;;;23.37;100.00;101201.00;4939851;28;46957;-72
2022/07/26 00:05:00;;;;;;;;;1.50;0.25;;;;;23.57;100.00;101230.03;4948330;28;45810;-72
2022/07/26 00:07:25;;;;;;;;;0.25;0.25;;;;;23.58;100.00;101231.72;4955734;28;45778;-74
2022/07/26 00:09:51;;;;;;;;;0.00;0.00;;;;;23.56;100.00;101231.16;4941283;28;45950;-72
2022/07/26 00:12:16;;;;;;;;;2.00;0.00;;;;;23.56;100.00;101233.97;4941146;28;45428;-72
2022/07/26 00:14:42;;;;;;;;;3.00;0.75;;;;;23.56;100.00;101239.56;4947361;28;46209;-72
2022/07/26 00:17:07;;;;;;;;;0.00;0.00;;;;;23.54;100.00;101231.44;4947769;28;45380;-71
2022/07/26 00:19:33;;;;;;;;;0.00;0.00;;;;;23.57;100.00;101230.03;4970524;28;45444;-73
2022/07/26 00:24:42;;;;;;;;;0.75;0.75;;;;;23.56;100.00;101231.16;4948620;28;45428;-73
2022/07/26 00:27:08;;;;;;;;;7.75;3.00;;;;;23.49;100.00;101227.81;4949610;28;45421;-73
2022/07/26 00:29:33;;;;;;;;;0.00;0.00;;;;;23.45;100.00;101239.59;4961607;28;44885;-71
2022/07/26 00:31:59;;;;;;;;;2.75;1.00;;;;;23.39;100.00;101235.13;4957701;28;45606;-71
2022/07/26 00:34:24;;;;;;;;;2.25;1.25;;;;;23.39;100.00;101240.72;4958191;28;46441;-71
2022/07/26 00:36:50;;;;;;;;;1.00;0.00;;;;;23.36;100.00;101249.69;4958741;28;45433;-72
2022/07/26 00:39:15;;;;;;;;;5.00;2.00;;;;;23.36;100.00;101248.88;4960619;28;45329;-73
2022/07/26 00:41:41;;;;;;;;;1.00;1.00;;;;;23.37;100.00;101245.78;4973369;28;44871;-78
2022/07/26 00:44:06;;;;;;;;;1.50;1.00;;;;;23.35;100.00;101250.81;4971612;28;46865;-79
2022/07/26 00:46:32;;;;;;;;;0.00;0.00;;;;;23.30;100.00;101238.81;4962243;28;45876;-79
2022/07/26 00:48:57;;;;;;;;;1.00;1.00;;;;;23.26;100.00;101235.72;4964700;28;45531;-79
2022/07/26 00:51:23;;;;;;;;;1.00;1.00;;;;;23.11;100.00;101217.00;4953544;28;45341;-80
2022/07/26 00:53:49;;;;;;;;;1.50;1.00;;;;;23.20;100.00;101236.84;4958014;28;46014;-78
2022/07/26 00:56:15;;;;;;;;;1.50;1.00;;;;;23.17;100.00;101229.84;4927618;28;45828;-77
2022/07/26 00:58:42;;;;;;;;;1.50;0.50;;;;;23.21;100.00;101238.53;4961138;28;45515;-78
2022/07/26 01:01:08;;;;;;;;;2.50;1.25;;;;;23.19;100.00;101236.00;4942516;28;45481;-78
2022/07/26 01:03:34;;;;;;;;;1.75;1.75;;;;;23.16;100.00;101230.13;4942491;28;45339;-78
2022/07/26 01:05:59;;;;;;;;;0.00;0.00;;;;;23.12;100.00;101223.44;4946310;28;45442;-78
2022/07/26 01:08:25;;;;;;;;;1.00;1.00;;;;;23.12;100.00;101231.84;4960787;28;45358;-78
2022/07/26 01:10:52;;;;;;;;;1.00;1.00;;;;;22.92;100.00;101202.72;4970552;28;45496;-77
2022/07/26 01:13:21;;;;;;;;;0.00;0.00;;;;;23.05;100.00;101224.53;4948074;28;45670;-78
2022/07/26 01:15:48;;;;;;;;;0.00;0.00;;;;;23.05;100.00;101224.53;4930667;28;45747;-78
2022/07/26 01:18:14;;;;;;;;;1.00;1.00;;;;;23.06;100.00;101229.00;4962220;28;45824;-77
2022/07/26 01:20:40;;;;;;;;;1.25;1.00;;;;;22.97;100.00;101221.47;4961704;28;45447;-77
2022/07/26 01:23:07;;;;;;;;;0.00;0.00;;;;;22.85;100.00;101207.75;4942699;28;46955;-77
2022/07/26 01:25:35;;;;;;;;;0.50;0.50;;;;;22.89;100.00;101220.06;4958759;28;45471;-73
2022/07/26 01:28:01;;;;;;;;;0.00;0.00;;;;;22.86;100.00;101231.78;4939169;28;45366;-72
2022/07/26 01:30:26;;;;;;;;;0.00;0.00;;;;;22.84;100.00;101234.03;4939281;28;45814;-74
2022/07/26 01:32:52;;;;;;;;;0.00;0.00;;;;;22.80;100.00;101221.72;4939052;28;48104;-71
2022/07/26 01:35:17;;;;;;;;;1.00;1.00;;;;;22.85;100.00;101227.34;4939055;28;45849;-72
2022/07/26 01:37:43;;;;;;;;;0.50;0.50;;;;;22.88;100.00;101223.97;4938794;28;45731;-71
2022/07/26 01:40:09;;;;;;;;;2.00;1.00;;;;;22.90;100.00;101227.31;4941547;28;46320;-72
2022/07/26 01:42:35;;;;;;;;;0.00;0.00;;;;;22.87;100.00;101227.88;4933329;28;46114;-72
2022/07/26 01:45:01;;;;;;;;;0.25;0.00;;;;;22.87;100.00;101222.28;4948936;28;45654;-71
2022/07/26 01:47:26;;;;;;;;;2.25;1.00;;;;;22.89;100.00;101229.28;4957008;28;45833;-71
2022/07/26 01:49:52;;;;;;;;;1.00;1.00;;;;;22.91;100.00;101227.03;4954398;28;45824;-71
2022/07/26 01:52:17;;;;;;;;;1.00;0.00;;;;;22.92;100.00;101227.91;4955238;28;45456;-71
2022/07/26 01:54:43;;;;;;;;;1.00;1.00;;;;;22.91;100.00;101224.25;4955502;28;45447;-72
2022/07/26 01:57:08;;;;;;;;;1.50;1.00;;;;;22.90;100.00;101224.53;4955608;28;45415;-72
2022/07/26 01:59:34;;;;;;;;;0.00;0.00;;;;;22.84;100.00;101217.25;4953974;28;45533;-72
2022/07/26 02:01:59;;;;;;;;;1.00;1.00;;;;;22.87;100.00;101219.50;4954314;28;47071;-72
2022/07/26 02:04:58;;;;;;;;;0.25;0.25;;;;;22.85;100.00;101225.38;4954155;28;45556;-71
2022/07/26 02:07:28;;;;;;;;;0.50;0.50;;;;;22.85;100.00;101224.53;4942322;28;45684;-71
2022/07/26 02:09:54;;;;;;;;;0.00;0.00;;;;;22.75;100.00;101205.78;4953637;28;45992;-72
2022/07/26 02:12:20;;;;;;;;;1.00;1.00;;;;;22.82;100.00;101220.34;4973751;28;46188;-72
2022/07/26 02:14:45;;;;;;;;;1.00;1.00;;;;;22.84;100.00;101225.66;4945078;28;45368;-77
2022/07/26 02:17:11;;;;;;;;;0.25;0.25;;;;;22.83;100.00;101232.34;4962458;28;45694;-78
2022/07/26 02:19:36;;;;;;;;;0.00;0.00;;;;;22.80;100.00;101224.53;4960345;28;45409;-77
2022/07/26 02:22:02;;;;;;;;;0.50;0.50;;;;;22.78;100.00;101229.56;4959296;28;45539;-78
2022/07/26 02:24:28;;;;;;;;;0.50;0.00;;;;;22.76;100.00;101229.03;4958669;28;44760;-76
2022/07/26 02:26:55;;;;;;;;;3.00;0.50;;;;;22.73;100.00;101231.25;4955159;28;45470;-78
2022/07/26 02:29:21;;;;;;;;;1.00;0.25;;;;;22.72;100.00;101232.38;4959283;28;45869;-78
2022/07/26 02:31:46;;;;;;;;;0.00;0.00;;;;;22.68;100.00;101233.19;4959100;28;45167;-77
2022/07/26 02:34:11;;;;;;;;;0.00;0.00;;;;;22.69;100.00;101238.50;4958379;28;45493;-76
2022/07/26 02:36:37;;;;;;;;;0.00;0.00;;;;;22.71;100.00;101233.50;4940864;28;45551;-76
2022/07/26 02:39:03;;;;;;;;;0.00;0.00;;;;;22.65;100.00;101231.81;4957028;28;45324;-78
2022/07/26 02:41:32;;;;;;;;;0.00;0.00;;;;;22.68;100.00;101236.84;4942019;28;46201;-79
2022/07/26 02:43:57;;;;;;;;;0.25;0.00;;;;;22.67;100.00;101225.94;4961665;28;45410;-77
2022/07/26 02:46:23;;;;;;;;;1.75;0.50;;;;;22.64;100.00;101230.13;4962341;28;45357;-78
2022/07/26 02:48:49;;;;;;;;;1.75;0.00;;;;;22.52;100.00;101219.22;4974324;28;45794;-77
2022/07/26 02:51:14;;;;;;;;;1.00;0.00;;;;;22.67;100.00;101239.91;4962977;28;45502;-76
2022/07/26 02:53:40;;;;;;;;;0.00;0.00;;;;;22.62;100.00;101232.38;4960700;28;45793;-77
2022/07/26 02:56:05;;;;;;;;;1.00;1.00;;;;;22.63;100.00;101233.19;4977031;28;45631;-78
2022/07/26 02:58:31;;;;;;;;;0.25;0.25;;;;;22.67;100.00;101239.91;4964076;28;45429;-78
2022/07/26 03:00:56;;;;;;;;;0.75;0.00;;;;;22.69;100.00;101238.50;4958085;28;45444;-77
2022/07/26 03:03:22;;;;;;;;;0.25;0.25;;;;;22.70;100.00;101237.41;4961184;28;45788;-76
2022/07/26 03:05:48;;;;;;;;;0.25;0.25;;;;;22.70;100.00;101239.38;4967953;28;46320;-78
2022/07/26 03:08:14;;;;;;;;;0.25;0.25;;;;;22.69;100.00;101246.06;4948663;28;45842;-77
2022/07/26 03:10:39;;;;;;;;;0.00;0.00;;;;;22.63;100.00;101236.00;4964188;28;45393;-77
2022/07/26 03:13:08;;;;;;;;;0.00;0.00;;;;;22.42;100.00;101216.41;4967303;28;45705;-80
2022/07/26 03:15:33;;;;;;;;;0.00;0.00;;;;;22.58;100.00;101248.00;4963920;28;45771;-76
2022/07/26 03:17:59;;;;;;;;;1.75;0.50;;;;;22.52;100.00;101243.53;4960715;28;45489;-77
2022/07/26 03:20:24;;;;;;;;;1.00;1.00;;;;;22.52;100.00;101249.13;4960631;28;46304;-78
2022/07/26 03:22:50;;;;;;;;;0.75;0.75;;;;;22.49;100.00;101247.72;4942802;28;45818;-77
2022/07/26 03:25:16;;;;;;;;;0.00;0.00;;;;;22.49;100.00;101249.69;4960690;28;45577;-77
2022/07/26 03:27:41;;;;;;;;;1.75;1.00;;;;;22.49;100.00;101249.69;4962985;28;45708;-79
2022/07/26 03:30:08;;;;;;;;;0.50;0.50;;;;;22.47;100.00;101257.50;4961954;28;45487;-77
2022/07/26 03:32:36;;;;;;;;;1.00;1.00;;;;;22.45;100.00;101249.38;4961833;28;45492;-85
2022/07/26 03:35:02;;;;;;;;;0.00;0.00;;;;;22.45;100.00;101251.34;4961459;28;45365;-78
2022/07/26 03:37:27;;;;;;;;;0.00;0.00;;;;;22.50;100.00;101251.34;4964325;28;45357;-76
2022/07/26 03:39:54;;;;;;;;;0.00;0.00;;;;;22.51;100.00;101248.25;4966818;28;45346;-77
2022/07/26 03:42:20;;;;;;;;;0.75;0.75;;;;;22.52;100.00;101254.72;4966738;28;45355;-78
2022/07/26 03:44:46;;;;;;;;;0.00;0.00;;;;;22.46;100.00;101245.47;4966746;28;45444;-78
2022/07/26 03:47:11;;;;;;;;;0.00;0.00;;;;;22.45;100.00;101240.16;4968040;28;45827;-78
2022/07/26 03:49:37;;;;;;;;;0.00;0.00;;;;;22.52;100.00;101263.09;4965971;28;46259;-78
2022/07/26 03:52:02;;;;;;;;;0.75;0.75;;;;;22.56;100.00;101267.84;4977268;28;45452;-77
2022/07/26 03:54:28;;;;;;;;;0.00;0.00;;;;;22.58;100.00;101264.78;4963896;28;45855;-77
2022/07/26 03:56:53;;;;;;;;;0.25;0.25;;;;;22.60;100.00;101268.13;4965746;28;45551;-78
2022/07/26 03:59:19;;;;;;;;;0.00;0.00;;;;;22.60;100.00;101273.72;4966219;28;45237;-77
2022/07/26 04:01:46;;;;;;;;;1.50;1.00;;;;;22.62;100.00;101268.72;4963654;28;45441;-79
2022/07/26 04:04:14;;;;;;;;;0.50;0.00;;;;;22.53;100.00;101254.44;4962624;28;45385;-80
2022/07/26 04:06:40;;;;;;;;;0.00;0.00;;;;;22.62;100.00;101265.06;4965144;28;45385;-78
2022/07/26 04:09:06;;;;;;;;;0.00;0.00;;;;;22.65;100.00;101262.56;4965080;28;46331;-79
2022/07/26 04:11:33;;;;;;;;;2.00;0.00;;;;;22.65;100.00;101259.78;4963337;28;45425;-79
2022/07/26 04:13:59;;;;;;;;;0.25;0.25;;;;;22.74;100.00;101274.88;4969566;28;44837;-77
2022/07/26 04:16:25;;;;;;;;;2.25;2.00;;;;;22.74;100.00;101274.03;4973357;28;45400;-77
2022/07/26 04:18:51;;;;;;;;;1.00;1.00;;;;;22.76;100.00;101269.00;4972210;28;45816;-79
2022/07/26 04:21:17;;;;;;;;;1.00;1.00;;;;;22.79;100.00;101265.66;4973274;28;45460;-78
2022/07/26 04:23:43;;;;;;;;;0.00;0.00;;;;;22.81;100.00;101268.16;4962083;28;45778;-78
2022/07/26 04:26:08;;;;;;;;;0.00;0.00;;;;;22.81;100.00;101262.56;4962299;28;45430;-79
2022/07/26 04:28:34;;;;;;;;;0.00;0.00;;;;;22.84;100.00;101273.19;4942653;28;46971;-79
2022/07/26 04:30:59;;;;;;;;;1.75;0.50;;;;;22.78;100.00;101257.53;4960534;28;45764;-78
2022/07/26 04:33:25;;;;;;;;;1.00;0.25;;;;;22.82;100.00;101267.88;4959623;28;44912;-79
2022/07/26 04:35:51;;;;;;;;;2.75;2.00;;;;;22.85;100.00;101263.69;4960851;28;45476;-79
2022/07/26 04:38:17;;;;;;;;;2.00;0.75;;;;;22.86;100.00;101268.16;4958702;28;47481;-78
2022/07/26 04:40:43;;;;;;;;;2.50;1.00;;;;;22.90;100.00;101278.53;4962094;28;45448;-79
2022/07/26 04:43:09;;;;;;;;;1.00;1.00;;;;;22.95;100.00;101276.84;4975031;28;45544;-77
2022/07/26 04:45:35;;;;;;;;;1.50;0.25;;;;;23.00;100.00;101279.66;4961876;28;45437;-78
2022/07/26 04:48:00;;;;;;;;;1.00;1.00;;;;;22.98;100.00;101268.75;4961079;28;46612;-78
2022/07/26 04:50:29;;;;;;;;;0.50;0.50;;;;;23.03;100.00;101279.91;4961855;28;45436;-78
2022/07/26 04:52:54;;;;;;;;;1.00;1.00;;;;;22.99;100.00;101281.59;4959029;28;45528;-79
2022/07/26 04:55:21;;;;;;;;;1.75;1.25;;;;;22.98;100.00;101282.72;4960660;28;45373;-78
2022/07/26 04:57:47;;;;;;;;;0.50;0.50;;;;;23.02;100.00;101283.00;4959935;28;45858;-78
2022/07/26 05:00:15;;;;;;;;;1.00;1.00;;;;;23.06;100.00;101287.75;4961116;28;45495;-77
2022/07/26 05:02:41;;;;;;;;;1.00;1.00;;;;;23.13;100.00;101286.66;4960656;28;45389;-76
2022/07/26 05:05:07;;;;;;;;;1.75;1.00;;;;;23.24;100.00;101294.75;4958963;28;45500;-76
2022/07/26 05:07:44;;;;;;;;;0.25;0.25;;;;;23.33;100.00;101291.41;4958623;28;46218;-75
2022/07/26 05:10:10;;;;;;;;;0.25;0.25;;;;;23.37;100.00;101287.75;4948725;28;45377;-75
2022/07/26 05:12:36;;;;;;;;;1.00;0.00;;;;;23.44;100.00;101296.72;4958402;28;45652;-75
2022/07/26 05:15:01;;;;;;;;;2.25;2.25;;;;;23.50;100.00;101286.31;4958802;28;45651;-77
2022/07/26 05:17:27;;;;;;;;;0.50;0.00;;;;;23.52;100.00;101295.28;4962430;28;45021;-75
2022/07/26 05:19:52;;;;;;;;;1.75;1.75;;;;;23.51;100.00;101295.59;4961249;28;45796;-75
2022/07/26 05:22:18;;;;;;;;;1.00;1.00;;;;;23.55;100.00;101305.94;4961848;28;45373;-76
2022/07/26 05:24:43;;;;;;;;;0.75;0.75;;;;;23.56;100.00;101301.16;4958791;28;45862;-75
2022/07/26 05:27:09;;;;;;;;;0.75;0.75;;;;;23.60;100.00;101307.88;4956795;28;45469;-75
2022/07/26 05:29:34;;;;;;;;;0.50;0.50;;;;;23.63;100.00;101305.34;4959832;28;45511;-76
2022/07/26 05:32:00;;;;;;;;;1.00;1.00;;;;;23.65;100.00;101307.84;4940676;28;45685;-79
2022/07/26 05:34:25;;;;;;;;;1.75;1.75;;;;;23.61;100.00;101309.56;4955752;28;45774;-76
2022/07/26 05:36:51;;;;;;;;;0.00;0.00;;;;;23.62;100.00;101314.03;4938383;28;45870;-79
2022/07/26 05:39:16;;;;;;;;;1.25;1.25;;;;;23.67;100.00;101316.84;4956452;28;45945;-78
2022/07/26 05:41:42;;;;;;;;;1.00;1.00;;;;;23.66;100.00;101315.13;4940139;28;45429;-78
2022/07/26 05:44:08;;;;;;;;;2.25;1.25;;;;;23.65;100.00;101316.25;4957339;28;46610;-77
2022/07/26 05:46:36;;;;;;;;;1.00;1.00;;;;;23.72;100.00;101321.56;4961770;28;45928;-78
2022/07/26 05:49:03;;;;;;;;;3.00;1.00;;;;;23.72;100.00;101313.19;4949923;28;45175;-78
2022/07/26 05:51:29;;;;;;;;;1.50;1.00;;;;;23.71;100.00;101309.53;4959716;28;45864;-79
2022/07/26 05:53:55;;;;;;;;;2.75;0.25;;;;;23.73;100.00;101318.50;4958827;28;45213;-78
2022/07/26 05:56:21;;;;;;;;;1.00;1.00;;;;;23.73;100.00;101318.50;4960227;28;46668;-78
2022/07/26 05:58:46;;;;;;;;;1.50;1.25;;;;;23.68;100.00;101307.28;4962150;28;44756;-78
2022/07/26 06:01:12;;;;;;;;;0.00;0.00;;;;;23.77;100.00;101318.75;4959229;28;45742;-78
2022/07/26 06:03:37;;;;;;;;;1.00;1.00;;;;;23.82;100.00;101317.91;4961979;28;45781;-80
2022/07/26 06:06:03;;;;;;;;;1.00;1.00;;;;;23.86;100.00;101322.66;4967550;28;46394;-79
2022/07/26 06:08:29;;;;;;;;;1.75;1.75;;;;;23.88;100.00;101328.03;4967780;28;44782;-80
2022/07/26 06:10:54;;;;;;;;;2.00;1.00;;;;;23.84;100.00;101326.88;4967006;28;45453;-77
2022/07/26 06:13:20;;;;;;;;;1.00;1.00;;;;;23.86;100.00;101327.44;4964128;28;45749;-78
2022/07/26 06:15:46;;;;;;;;;4.25;2.25;;;;;23.84;100.00;101327.69;4955269;28;45277;-76
2022/07/26 06:18:12;;;;;;;;;0.00;0.00;;;;;23.83;100.00;101339.19;4962602;28;45684;-77
2022/07/26 06:20:43;;;;;;;;;2.00;2.00;;;;;23.84;100.00;101338.06;4942272;28;45471;-78
2022/07/26 06:23:09;;;;;;;;;3.00;1.00;;;;;23.68;100.00;101304.47;4960007;28;45758;-78
2022/07/26 06:25:34;;;;;;;;;1.00;1.00;;;;;23.86;100.00;101338.66;4960119;28;45449;-78
2022/07/26 06:28:04;;;;;;;;;1.25;1.00;;;;;23.86;100.00;101344.25;4941142;28;45428;-77
2022/07/26 06:30:30;;;;;;;;;2.00;0.50;;;;;23.87;100.00;101337.53;4949496;28;45493;-80
2022/07/26 06:32:55;;;;;;;;;2.00;2.00;;;;;23.93;100.00;101347.59;4958955;28;45763;-78
2022/07/26 06:35:21;;;;;;;;;1.00;1.00;;;;;24.01;100.00;101344.19;4944181;28;46034;-79
2022/07/26 06:37:46;;;;;;;;;3.00;0.75;;;;;24.10;100.00;101339.72;4929453;28;45946;-80
2022/07/26 06:40:12;;;;;;;;;1.00;1.00;;;;;24.21;100.00;101336.88;4947241;28;45809;-79
2022/07/26 06:42:38;;;;;;;;;1.25;1.25;;;;;24.30;100.00;101335.97;4942139;28;46025;-79
2022/07/26 06:45:04;;;;;;;;;4.25;2.50;;;;;24.31;100.00;101325.59;4945720;28;46093;-78
2022/07/26 06:47:30;;;;;;;;;0.75;0.75;;;;;24.50;100.00;101340.63;4949136;28;45826;-79
2022/07/26 06:49:55;;;;;;;;;1.00;1.00;;;;;24.57;100.00;101336.69;4948300;28;45540;-78
2022/07/26 06:52:21;;;;;;;;;1.00;1.00;;;;;24.68;100.00;101343.94;4951468;28;45907;-79
2022/07/26 06:54:47;;;;;;;;;0.75;0.00;;;;;24.75;100.00;101344.47;4969789;28;46136;-80
2022/07/26 06:57:13;;;;;;;;;0.00;0.00;;;;;24.79;100.00;101344.69;4932162;28;45827;-80
2022/07/26 06:59:38;;;;;;;;;2.00;1.00;;;;;24.83;100.00;101343.81;4946801;28;46639;-81
2022/07/26 07:02:04;;;;;;;;;4.25;2.00;;;;;24.76;100.00;101326.50;4950444;28;45897;-78
2022/07/26 07:04:30;;;;;;;;;2.00;0.00;;;;;24.93;100.00;101342.94;4949809;28;47069;-80
2022/07/26 07:07:01;;;;;;;;;1.50;1.50;;;;;25.01;100.00;101347.91;4949034;28;45511;-80
2022/07/26 07:09:27;;;;;;;;;2.00;1.00;;;;;25.03;100.00;101344.84;4948853;28;44944;-80
2022/07/26 07:11:52;;;;;;;;;1.00;1.00;;;;;25.09;100.00;101346.47;4945393;28;46125;-80
2022/07/26 07:14:18;;;;;;;;;0.75;0.75;;;;;25.14;100.00;101345.59;4945952;28;46076;-80
2022/07/26 07:16:43;;;;;;;;;0.75;0.75;;;;;25.19;100.00;101351.16;4928488;28;45956;-80
2022/07/26 07:19:09;;;;;;;;;3.00;1.00;;;;;25.26;100.00;101359.25;4949836;28;45895;-77
2022/07/26 07:21:34;;;;;;;;;1.00;1.00;;;;;25.28;100.00;101356.97;4945041;28;45526;-82
2022/07/26 07:24:00;;;;;;;;;1.25;1.00;;;;;25.36;100.00;101356.41;4946385;28;46057;-79
2022/07/26 07:26:25;;;;;;;;;3.50;1.25;;;;;25.42;100.00;101358.03;4950939;28;45779;-72
2022/07/26 07:28:51;;;;;;;;;1.75;1.50;;;;;25.53;100.00;101361.56;4949702;28;45531;-71
2022/07/26 07:31:16;;;;;;;;;2.25;2.00;;;;;25.61;100.00;101357.28;4947677;28;45829;-75
2022/07/26 07:33:42;;;;;;;;;1.00;1.00;;;;;25.70;100.00;101361.13;4947768;28;46643;-73
2022/07/26 07:36:07;;;;;;;;;2.00;1.00;;;;;25.78;100.00;101354.00;4960061;28;45602;-75
2022/07/26 07:38:33;;;;;;;;;2.50;2.50;;;;;25.67;100.00;101331.63;4946328;28;45635;-73
2022/07/26 07:40:59;;;;;;;;;4.00;1.00;;;;;25.95;100.00;101356.38;4930893;28;45715;-75
2022/07/26 07:43:24;;;;;;;;;2.00;2.00;;;;;25.92;100.00;101355.00;4950524;28;46106;-73
2022/07/26 07:45:50;;;;;;;;;0.50;0.50;;;;;26.07;100.00;101356.81;4948035;28;45812;-72
2022/07/26 07:48:16;;;;;;;;;1.50;1.50;;;;;26.14;100.00;101357.31;4948148;28;47364;-73
2022/07/26 07:50:41;;;;;;;;;2.00;2.00;;;;;26.22;100.00;101351.00;4946797;28;46162;-73
2022/07/26 07:53:06;;;;;;;;;1.25;1.00;;;;;26.33;100.00;101345.25;4947118;28;46003;-73
2022/07/26 07:55:32;;;;;;;;;1.25;1.00;;;;;26.46;100.00;101347.31;4965010;28;46145;-72
2022/07/26 07:57:58;;;;;;;;;2.00;2.00;;;;;26.63;100.00;101358.06;4946270;28;45581;-73
2022/07/26 08:00:24;;;;;;;;;0.75;0.75;;;;;26.75;100.00;101354.81;4947501;28;46339;-71
2022/07/26 08:02:49;;;;;;;;;2.25;1.00;;;;;26.88;100.00;101354.06;4946512;28;47526;-73
2022/07/26 08:05:15;;;;;;;;;2.25;2.00;;;;;26.99;100.00;101362.34;4947968;28;45892;-72
2022/07/26 08:07:41;;;;;;;;;2.25;2.00;;;;;27.05;100.00;101359.16;4949756;28;45599;-72
2022/07/26 08:10:07;;;;;;;;;3.50;2.25;;;;;27.15;100.00;101360.97;4923119;28;46031;-72
2022/07/26 08:12:33;;;;;;;;;2.00;2.00;;;;;27.23;100.00;101360.28;4950020;28;45601;-72
2022/07/26 08:14:58;;;;;;;;;3.75;2.75;;;;;27.29;100.00;101358.19;4920248;28;45733;-72
2022/07/26 08:17:23;;;;;;;;;4.75;3.50;;;;;27.35;100.00;101359.00;4949733;28;45904;-73
2022/07/26 08:19:49;;;;;;;;;1.00;1.00;;;;;27.43;100.00;101363.94;4950857;28;45618;-73
2022/07/26 08:22:14;;;;;;;;;2.00;1.50;;;;;27.44;100.00;101359.94;4952457;28;46036;-73
2022/07/26 08:24:40;;;;;;;;;1.00;1.00;;;;;27.53;100.00;101363.75;4947547;28;45941;-72
2022/07/26 08:27:06;;;;;;;;;2.00;1.25;;;;;27.46;100.00;101352.03;4946063;28;45694;-73
2022/07/26 08:29:31;;;;;;;;;1.00;1.00;;;;;27.55;100.00;101372.72;4950661;28;45781;-72
2022/07/26 08:31:57;;;;;;;;;1.25;1.25;;;;;27.60;100.00;101364.16;4947124;28;46283;-76
2022/07/26 08:34:23;;;;;;;;;3.75;1.25;;;;;27.57;100.00;101352.69;4940020;28;45531;-72
2022/07/26 08:36:48;;;;;;;;;1.00;1.00;;;;;27.80;100.00;101373.38;4949337;28;45783;-72
2022/07/26 08:39:15;;;;;;;;;1.00;1.00;;;;;27.91;100.00;101374.88;4937505;28;45945;-73
2022/07/26 08:41:41;;;;;;;;;3.00;1.50;;;;;28.00;100.00;101383.50;4936731;28;46684;-72
2022/07/26 08:44:08;;;;;;;;;2.00;2.00;;;;;28.08;100.00;101377.09;4949801;28;46553;-73
2022/07/26 08:46:36;;;;;;;;;4.50;2.25;;;;;28.10;100.00;101376.78;4948315;28;45827;-72
2022/07/26 08:49:05;;;;;;;;;3.00;2.00;;;;;28.09;100.00;101377.97;4948979;28;45344;-72
2022/07/26 08:51:31;;;;;;;;;4.25;3.75;;;;;28.13;100.00;101381.81;4934272;28;47196;-72
2022/07/26 08:54:00;;;;;;;;;1.00;1.00;;;;;28.17;100.00;101385.69;4932378;28;45664;-72
2022/07/26 08:56:26;;;;;;;;;2.50;1.50;;;;;28.23;98.86;101380.78;4931153;28;45850;-71
2022/07/26 08:58:51;;;;;;;;;3.25;3.25;;;;;28.25;99.63;101375.66;4953227;28;45599;-75
2022/07/26 09:01:17;;;;;;;;;4.00;2.00;;;;;28.21;99.22;101372.63;4943261;28;45738;-77
2022/07/26 09:03:44;;;;;;;;;2.00;2.00;;;;;28.18;100.00;101379.72;4942555;28;46095;-75
2022/07/26 09:06:22;;;;;;;;;2.00;2.00;;;;;28.18;99.32;101384.53;4941817;28;45983;-74
2022/07/26 09:08:52;;;;;;;;;2.50;1.75;;;;;28.21;99.21;101391.53;4932652;28;46153;-75
2022/07/26 09:11:23;;;;;;;;;1.00;1.00;;;;;28.22;98.19;101379.09;4940183;28;46922;-75
2022/07/26 09:13:54;;;;;;;;;3.00;2.00;;;;;28.21;97.91;101385.91;4938086;28;45795;-73
2022/07/26 09:16:20;;;;;;;;;3.00;2.00;;;;;28.15;97.37;101388.00;4942056;28;45843;-76
2022/07/26 09:18:45;;;;;;;;;6.25;4.00;;;;;27.99;97.33;101384.63;4965694;28;46192;-74
2022/07/26 09:21:32;;;;;;;;;2.75;2.75;;;;;27.97;98.37;101393.41;4950804;28;46498;-75
2022/07/26 09:23:58;;;;;;;;;11.25;10.25;;;;;28.07;97.94;101400.84;4950840;28;45977;-77
2022/07/26 09:26:24;;;;;;;;;10.75;7.25;;;;;28.05;97.69;101388.19;4947469;28;45473;-74
2022/07/26 09:29:11;;;;;;;;;3.00;3.00;;;;;28.14;96.73;101394.78;4933080;28;46752;-74
2022/07/26 09:31:37;;;;;;;;;1.00;1.00;;;;;28.18;95.01;101401.47;4947247;28;45888;-76
2022/07/26 09:34:04;;;;;;;;;1.75;1.75;;;;;28.17;93.07;101391.31;4946258;28;45855;-74
2022/07/26 09:36:30;;;;;;;;;4.25;3.00;;;;;28.25;94.22;101401.88;4942760;28;45895;-74
2022/07/26 09:39:00;;;;;;;;;5.50;3.25;;;;;28.34;91.94;101388.72;4951696;28;45893;-73
2022/07/26 09:41:28;;;;;;;;;4.00;3.00;;;;;28.41;90.38;101399.56;4949130;28;45685;-74
2022/07/26 09:43:57;;;;;;;;;3.00;3.00;;;;;28.48;89.88;101394.34;4948637;28;45551;-75
2022/07/26 09:46:24;;;;;;;;;4.00;3.00;;;;;28.65;89.69;101404.19;4946238;28;45420;-75
2022/07/26 09:48:51;;;;;;;;;2.00;2.00;;;;;28.80;87.97;101400.19;4950104;28;45476;-74
2022/07/26 09:51:34;;;;;;;;;3.50;3.50;;;;;28.98;85.71;101399.22;4950339;28;46392;-75
2022/07/26 09:53:59;;;;;;;;;1.00;1.00;;;;;29.12;81.48;101389.81;4949611;28;45864;-76
2022/07/26 09:56:50;;;;;;;;;2.00;2.00;;;;;29.35;84.14;101404.84;4925692;28;45854;-76
2022/07/26 09:59:19;;;;;;;;;3.00;2.00;;;;;29.56;83.18;101397.50;4944198;28;47477;-76
2022/07/26 10:01:45;;;;;;;;;7.00;7.00;;;;;29.65;79.82;101397.56;4944503;28;47049;-77
2022/07/26 10:04:12;;;;;;;;;5.75;4.75;;;;;29.77;77.93;101397.78;4929300;28;46028;-72
2022/07/26 10:06:38;;;;;;;;;7.00;4.00;;;;;29.88;74.67;101394.72;4925383;28;45481;-74
2022/07/26 10:09:04;;;;;;;;;1.75;1.75;;;;;30.02;75.71;101406.78;4947530;28;45457;-73
2022/07/26 10:12:03;;;;;;;;;1.25;1.25;;;;;30.19;76.06;101408.03;4936762;28;47364;-74
2022/07/26 10:14:31;;;;;;;;;2.00;2.00;;;;;30.41;69.89;101413.63;4950028;28;45874;-75
2022/07/26 10:16:57;;;;;;;;;2.00;2.00;;;;;30.65;70.68;101411.53;4947635;28;46019;-76
2022/07/26 10:19:39;;;;;;;;;2.00;2.00;;;;;30.90;65.87;101409.88;4955992;28;46172;-75
2022/07/26 10:22:26;;;;;;;;;1.50;1.50;;;;;31.10;64.17;101406.44;4948259;28;45497;-75
2022/07/26 10:24:53;;;;;;;;;2.50;2.50;;;;;31.25;63.48;101401.44;4928272;28;45765;-74
2022/07/26 10:27:38;;;;;;;;;4.00;2.00;;;;;31.50;62.04;101406.25;4952128;28;45576;-76
2022/07/26 10:30:21;;;;;;;;;2.75;2.75;;;;;31.66;61.39;101412.28;4945742;28;45774;-78
2022/07/26 10:32:55;;;;;;;;;1.50;1.50;;;;;31.75;60.61;101405.72;4949552;28;46444;-77
2022/07/26 10:35:41;;;;;;;;;2.00;1.80;;;;;31.80;56.03;101414.91;4949551;28;45819;-75
2022/07/26 10:38:08;;;;;;;;;5.50;5.00;;;;;31.83;57.05;101396.38;4950503;28;45386;-75
2022/07/26 10:40:35;;;;;;;;;8.00;7.25;;;;;31.96;54.83;101403.84;4948708;28;46178;-75
2022/07/26 10:43:12;;;;;;;;;2.75;2.00;;;;;31.97;53.25;101408.31;4949397;28;47107;-75
2022/07/26 10:45:38;;;;;;;;;2.25;1.25;;;;;32.01;50.10;101400.81;4950978;28;45795;-74
2022/07/26 10:48:30;;;;;;;;;2.75;2.00;;;;;32.06;51.81;101405.47;4934467;28;45922;-74
2022/07/26 10:50:55;;;;;;;;;3.25;3.25;;;;;32.10;52.04;101397.09;4930174;28;45606;-74
2022/07/26 10:53:26;;;;;;;;;8.00;4.50;;;;;32.07;50.24;101394.94;4952352;28;46167;-76
2022/07/26 10:55:56;;;;;;;;;1.25;1.25;;;;;32.10;48.36;101408.44;4953238;28;45537;-75
2022/07/26 10:58:24;;;;;;;;;4.50;4.00;;;;;31.93;47.46;101386.66;4950645;28;45803;-75
2022/07/26 11:00:54;;;;;;;;;1.00;1.00;;;;;32.04;49.70;101404.97;4944790;28;45762;-74
2022/07/26 11:03:20;;;;;;;;;3.25;2.00;;;;;32.00;48.67;101409.66;4947104;28;45704;-74
2022/07/26 11:05:45;;;;;;;;;1.00;1.00;;;;;31.85;48.71;101409.03;4953844;28;45436;-73
2022/07/26 11:08:11;;;;;;;;;2.00;1.00;;;;;31.62;46.70;101410.44;4926739;28;46489;-76
2022/07/26 11:10:43;;;;;;;;;1.00;1.00;;;;;31.39;48.08;101413.41;4939991;28;46214;-74
2022/07/26 11:13:21;;;;;;;;;1.25;1.25;;;;;31.02;49.02;101403.59;4951538;28;45431;-74
2022/07/26 11:15:57;;;;;;;;;1.25;1.25;;;;;30.67;51.00;101410.03;4949312;28;45528;-75
2022/07/26 11:18:29;;;;;;;;;0.75;0.75;;;;;30.28;51.99;101408.88;4947937;28;46010;-76
2022/07/26 11:20:56;;;;;;;;;1.25;1.25;;;;;29.92;51.87;101399.41;4958297;28;45951;-77